sensor_id;sensor_type;location;lat;lon;timestamp;pressure;altitude;pressure_sealevel;temperature;humidity
34931;BME280;21134;49.646;8.560;2023-03-05T00:00:20;100879.47;;;3.71;93.00
34931;BME280;21134;49.646;8.560;2023-03-05T00:02:47;100879.41;;;3.69;93.36
34931;BME280;21134;49.646;8.560;2023-03-05T00:05:13;100879.38;;;3.68;92.79
34931;BME280;21134;49.646;8.560;2023-03-05T00:07:40;100878.44;;;3.66;92.98
34931;BME280;21134;49.646;8.560;2023-03-05T00:10:07;100868.34;;;3.66;93.14
34931;BME280;21134;49.646;8.560;2023-03-05T00:12:34;100876.78;;;3.66;93.64
34931;BME280;21134;49.646;8.560;2023-03-05T00:15:02;100871.72;;;3.66;93.03
34931;BME280;21134;49.646;8.560;2023-03-05T00:17:29;100875.06;;;3.65;92.88
34931;BME280;21134;49.646;8.560;2023-03-05T00:19:57;100875.88;;;3.64;93.19
34931;BME280;21134;49.646;8.560;2023-03-05T00:22:23;100872.44;;;3.62;93.37
34931;BME280;21134;49.646;8.560;2023-03-05T00:24:50;100870.81;;;3.64;93.10
34931;BME280;21134;49.646;8.560;2023-03-05T00:27:17;100865.66;;;3.61;93.03
34931;BME280;21134;49.646;8.560;2023-03-05T00:29:43;100863.91;;;3.60;92.47
34931;BME280;21134;49.646;8.560;2023-03-05T00:32:11;100864.75;;;3.59;92.91
34931;BME280;21134;49.646;8.560;2023-03-05T00:34:38;100863.06;;;3.60;92.84
34931;BME280;21134;49.646;8.560;2023-03-05T00:37:04;100863.06;;;3.60;92.84
34931;BME280;21134;49.646;8.560;2023-03-05T00:39:32;100857.13;;;3.58;92.58
34931;BME280;21134;49.646;8.560;2023-03-05T00:41:58;100856.19;;;3.56;92.82
34931;BME280;21134;49.646;8.560;2023-03-05T00:44:25;100852.81;;;3.55;92.93
34931;BME280;21134;49.646;8.560;2023-03-05T00:46:51;100854.53;;;3.56;92.77
34931;BME280;21134;49.646;8.560;2023-03-05T00:49:19;100848.63;;;3.57;93.06
34931;BME280;21134;49.646;8.560;2023-03-05T00:51:45;100845.25;;;3.57;92.98
34931;BME280;21134;49.646;8.560;2023-03-05T00:54:12;100841.88;;;3.56;92.58
34931;BME280;21134;49.646;8.560;2023-03-05T00:56:38;100835.88;;;3.54;92.39
34931;BME280;21134;49.646;8.560;2023-03-05T00:59:05;100840.81;;;3.49;92.56
34931;BME280;21134;49.646;8.560;2023-03-05T01:01:31;100834.91;;;3.49;92.48
34931;BME280;21134;49.646;8.560;2023-03-05T01:03:58;100839.88;;;3.47;92.64
34931;BME280;21134;49.646;8.560;2023-03-05T01:06:27;100837.31;;;3.46;93.13
34931;BME280;21134;49.646;8.560;2023-03-05T01:08:54;100831.34;;;3.44;92.46
34931;BME280;21134;49.646;8.560;2023-03-05T01:11:21;100827.91;;;3.42;92.51
34931;BME280;21134;49.646;8.560;2023-03-05T01:13:48;100826.19;;;3.41;92.30
34931;BME280;21134;49.646;8.560;2023-03-05T01:16:14;100829.50;;;3.38;92.36
34931;BME280;21134;49.646;8.560;2023-03-05T01:18:41;100831.19;;;3.39;92.53
34931;BME280;21134;49.646;8.560;2023-03-05T01:21:08;100817.69;;;3.39;92.38
34931;BME280;21134;49.646;8.560;2023-03-05T01:23:36;100813.44;;;3.38;92.68
34931;BME280;21134;49.646;8.560;2023-03-05T01:26:03;100815.09;;;3.37;93.18
34931;BME280;21134;49.646;8.560;2023-03-05T01:28:30;100811.63;;;3.34;92.81
34931;BME280;21134;49.646;8.560;2023-03-05T01:30:57;100814.16;;;3.34;93.21
34931;BME280;21134;49.646;8.560;2023-03-05T01:33:24;100818.44;;;3.36;92.82
34931;BME280;21134;49.646;8.560;2023-03-05T01:35:50;100801.59;;;3.37;92.89
34931;BME280;21134;49.646;8.560;2023-03-05T01:38:17;100805.09;;;3.40;93.51
34931;BME280;21134;49.646;8.560;2023-03-05T01:40:45;100800.78;;;3.38;93.58
34931;BME280;21134;49.646;8.560;2023-03-05T01:43:26;100802.34;;;3.34;93.02
34931;BME280;21134;49.646;8.560;2023-03-05T01:46:21;100798.88;;;3.31;93.28
34931;BME280;21134;49.646;8.560;2023-03-05T01:48:51;100802.16;;;3.28;93.32
34931;BME280;21134;49.646;8.560;2023-03-05T01:51:21;100795.38;;;3.27;93.76
34931;BME280;21134;49.646;8.560;2023-03-05T01:53:50;100786.03;;;3.24;93.82
34931;BME280;21134;49.646;8.560;2023-03-05T01:56:19;100788.53;;;3.24;94.20
34931;BME280;21134;49.646;8.560;2023-03-05T01:58:46;100788.50;;;3.23;94.06
34931;BME280;21134;49.646;8.560;2023-03-05T02:01:13;100786.78;;;3.22;94.42
34931;BME280;21134;49.646;8.560;2023-03-05T02:03:41;100788.50;;;3.23;94.17
34931;BME280;21134;49.646;8.560;2023-03-05T02:06:08;100791.91;;;3.23;94.57
34931;BME280;21134;49.646;8.560;2023-03-05T02:08:34;100780.00;;;3.21;93.81
34931;BME280;21134;49.646;8.560;2023-03-05T02:11:01;100784.22;;;3.20;94.54
34931;BME280;21134;49.646;8.560;2023-03-05T02:13:31;100781.59;;;3.19;94.57
34931;BME280;21134;49.646;8.560;2023-03-05T02:16:00;100778.97;;;3.16;94.24
34931;BME280;21134;49.646;8.560;2023-03-05T02:18:27;100774.91;;;3.19;94.01
34931;BME280;21134;49.646;8.560;2023-03-05T02:21:00;100777.38;;;3.18;94.19
34931;BME280;21134;49.646;8.560;2023-03-05T02:23:29;100770.59;;;3.17;94.46
34931;BME280;21134;49.646;8.560;2023-03-05T02:25:57;100774.81;;;3.16;94.23
34931;BME280;21134;49.646;8.560;2023-03-05T02:28:25;100780.63;;;3.14;94.40
34931;BME280;21134;49.646;8.560;2023-03-05T02:30:53;100772.22;;;3.15;94.67
34931;BME280;21134;49.646;8.560;2023-03-05T02:33:20;100769.59;;;3.12;94.97
34931;BME280;21134;49.646;8.560;2023-03-05T02:35:46;100773.84;;;3.13;94.98
34931;BME280;21134;49.646;8.560;2023-03-05T02:38:17;100764.59;;;3.13;95.19
34931;BME280;21134;49.646;8.560;2023-03-05T02:40:44;100758.63;;;3.11;95.44
34931;BME280;21134;49.646;8.560;2023-03-05T02:43:11;100764.53;;;3.12;94.81
34931;BME280;21134;49.646;8.560;2023-03-05T02:45:37;100748.59;;;3.14;95.55
34931;BME280;21134;49.646;8.560;2023-03-05T02:48:04;100758.69;;;3.13;95.66
34931;BME280;21134;49.646;8.560;2023-03-05T02:50:32;100754.47;;;3.13;95.95
34931;BME280;21134;49.646;8.560;2023-03-05T02:52:59;100746.81;;;3.12;96.10
34931;BME280;21134;49.646;8.560;2023-03-05T02:55:26;100742.69;;;3.14;95.17
34931;BME280;21134;49.646;8.560;2023-03-05T02:57:53;100746.06;;;3.14;95.09
34931;BME280;21134;49.646;8.560;2023-03-05T03:00:20;100748.63;;;3.16;95.04
34931;BME280;21134;49.646;8.560;2023-03-05T03:02:46;100736.88;;;3.16;94.88
34931;BME280;21134;49.646;8.560;2023-03-05T03:05:13;100746.06;;;3.14;95.63
34931;BME280;21134;49.646;8.560;2023-03-05T03:07:39;100736.00;;;3.16;95.88
34931;BME280;21134;49.646;8.560;2023-03-05T03:10:07;100733.44;;;3.14;96.07
34931;BME280;21134;49.646;8.560;2023-03-05T03:12:37;100730.88;;;3.13;95.33
34931;BME280;21134;49.646;8.560;2023-03-05T03:15:04;100727.56;;;3.15;95.83
34931;BME280;21134;49.646;8.560;2023-03-05T03:17:33;100730.06;;;3.14;95.57
34931;BME280;21134;49.646;8.560;2023-03-05T03:20:00;100720.75;;;3.13;95.55
34931;BME280;21134;49.646;8.560;2023-03-05T03:22:28;100723.28;;;3.13;95.05
34931;BME280;21134;49.646;8.560;2023-03-05T03:24:54;100724.06;;;3.12;94.96
34931;BME280;21134;49.646;8.560;2023-03-05T03:27:21;100716.38;;;3.09;95.58
34931;BME280;21134;49.646;8.560;2023-03-05T03:29:49;100712.97;;;3.07;95.66
34931;BME280;21134;49.646;8.560;2023-03-05T03:32:15;100718.03;;;3.07;95.62
34931;BME280;21134;49.646;8.560;2023-03-05T03:34:42;100711.19;;;3.04;95.74
34931;BME280;21134;49.646;8.560;2023-03-05T03:37:09;100715.41;;;3.03;95.96
34931;BME280;21134;49.646;8.560;2023-03-05T03:39:36;100712.91;;;3.05;95.68
34931;BME280;21134;49.646;8.560;2023-03-05T03:42:03;100709.53;;;3.05;95.34
34931;BME280;21134;49.646;8.560;2023-03-05T03:44:29;100702.69;;;3.02;95.70
34931;BME280;21134;49.646;8.560;2023-03-05T03:46:57;100702.75;;;3.03;96.17
34931;BME280;21134;49.646;8.560;2023-03-05T03:49:24;100695.19;;;3.03;95.88
34931;BME280;21134;49.646;8.560;2023-03-05T03:51:52;100694.34;;;3.05;96.10
34931;BME280;21134;49.646;8.560;2023-03-05T03:54:21;100692.69;;;3.05;96.58
34931;BME280;21134;49.646;8.560;2023-03-05T03:56:47;100688.47;;;3.06;96.65
34931;BME280;21134;49.646;8.560;2023-03-05T03:59:14;100691.06;;;3.07;96.04
34931;BME280;21134;49.646;8.560;2023-03-05T04:01:40;100680.03;;;3.05;96.59
34931;BME280;21134;49.646;8.560;2023-03-05T04:04:09;100675.81;;;3.04;96.64
34931;BME280;21134;49.646;8.560;2023-03-05T04:06:36;100678.34;;;3.04;96.80
34931;BME280;21134;49.646;8.560;2023-03-05T04:09:03;100675.91;;;3.07;96.51
34931;BME280;21134;49.646;8.560;2023-03-05T04:11:30;100675.91;;;3.07;96.57
34931;BME280;21134;49.646;8.560;2023-03-05T04:13:56;100664.94;;;3.07;96.21
34931;BME280;21134;49.646;8.560;2023-03-05T04:16:23;100671.66;;;3.06;96.28
34931;BME280;21134;49.646;8.560;2023-03-05T04:18:49;100676.69;;;3.06;95.75
34931;BME280;21134;49.646;8.560;2023-03-05T04:21:17;100674.13;;;3.05;96.19
34931;BME280;21134;49.646;8.560;2023-03-05T04:23:44;100670.66;;;3.01;95.74
34931;BME280;21134;49.646;8.560;2023-03-05T04:26:10;100676.53;;;3.00;96.14
34931;BME280;21134;49.646;8.560;2023-03-05T04:28:37;100674.66;;;2.94;95.93
34931;BME280;21134;49.646;8.560;2023-03-05T04:31:04;100671.09;;;2.89;95.62
34931;BME280;21134;49.646;8.560;2023-03-05T04:33:30;100673.72;;;2.92;96.22
34931;BME280;21134;49.646;8.560;2023-03-05T04:35:58;100674.75;;;2.97;95.22
34931;BME280;21134;49.646;8.560;2023-03-05T04:38:25;100667.97;;;2.96;95.16
34931;BME280;21134;49.646;8.560;2023-03-05T04:40:52;100680.59;;;2.96;95.68
34931;BME280;21134;49.646;8.560;2023-03-05T04:43:18;100677.19;;;2.94;95.68
34931;BME280;21134;49.646;8.560;2023-03-05T04:45:45;100685.50;;;2.92;96.16
34931;BME280;21134;49.646;8.560;2023-03-05T04:48:11;100676.25;;;2.92;95.46
34931;BME280;21134;49.646;8.560;2023-03-05T04:50:38;100671.97;;;2.90;96.23
34931;BME280;21134;49.646;8.560;2023-03-05T04:53:05;100674.56;;;2.91;96.01
34931;BME280;21134;49.646;8.560;2023-03-05T04:55:33;100669.53;;;2.93;96.05
34931;BME280;21134;49.646;8.560;2023-03-05T04:57:59;100670.34;;;2.92;96.41
34931;BME280;21134;49.646;8.560;2023-03-05T05:00:26;100668.66;;;2.91;96.28
34931;BME280;21134;49.646;8.560;2023-03-05T05:02:52;100656.88;;;2.91;96.75
34931;BME280;21134;49.646;8.560;2023-03-05T05:05:21;100659.31;;;2.90;96.82
34931;BME280;21134;49.646;8.560;2023-03-05T05:07:48;100656.78;;;2.90;97.01
34931;BME280;21134;49.646;8.560;2023-03-05T05:10:16;100661.00;;;2.89;96.85
34931;BME280;21134;49.646;8.560;2023-03-05T05:12:43;100661.81;;;2.88;96.47
34931;BME280;21134;49.646;8.560;2023-03-05T05:15:10;100655.06;;;2.87;97.18
34931;BME280;21134;49.646;8.560;2023-03-05T05:17:37;100657.59;;;2.87;97.05
34931;BME280;21134;49.646;8.560;2023-03-05T05:20:05;100659.28;;;2.88;96.44
34931;BME280;21134;49.646;8.560;2023-03-05T05:22:33;100658.38;;;2.86;96.47
34931;BME280;21134;49.646;8.560;2023-03-05T05:25:00;100657.50;;;2.86;97.08
34931;BME280;21134;49.646;8.560;2023-03-05T05:27:26;100661.66;;;2.84;97.35
34931;BME280;21134;49.646;8.560;2023-03-05T05:29:55;100656.59;;;2.84;97.29
34931;BME280;21134;49.646;8.560;2023-03-05T05:32:22;100663.31;;;2.83;96.64
34931;BME280;21134;49.646;8.560;2023-03-05T05:34:52;100660.13;;;2.87;96.49
34931;BME280;21134;49.646;8.560;2023-03-05T05:37:19;100665.22;;;2.90;96.99
34931;BME280;21134;49.646;8.560;2023-03-05T05:39:46;100658.44;;;2.88;96.96
34931;BME280;21134;49.646;8.560;2023-03-05T05:42:14;100659.31;;;2.90;96.75
34931;BME280;21134;49.646;8.560;2023-03-05T05:44:41;100656.75;;;2.88;96.82
34931;BME280;21134;49.646;8.560;2023-03-05T05:47:09;100658.44;;;2.88;96.84
34931;BME280;21134;49.646;8.560;2023-03-05T05:49:35;100653.41;;;2.89;97.33
34931;BME280;21134;49.646;8.560;2023-03-05T05:52:02;100650.97;;;2.91;97.44
34931;BME280;21134;49.646;8.560;2023-03-05T05:54:28;100652.56;;;2.89;97.08
34931;BME280;21134;49.646;8.560;2023-03-05T05:56:55;100650.88;;;2.89;97.08
34931;BME280;21134;49.646;8.560;2023-03-05T05:59:21;100650.03;;;2.89;97.34
34931;BME280;21134;49.646;8.560;2023-03-05T06:01:48;100650.88;;;2.89;97.47
34931;BME280;21134;49.646;8.560;2023-03-05T06:04:16;100646.75;;;2.91;97.65
34931;BME280;21134;49.646;8.560;2023-03-05T06:06:42;100647.66;;;2.93;97.78
34931;BME280;21134;49.646;8.560;2023-03-05T06:09:09;100640.84;;;2.91;97.45
34931;BME280;21134;49.646;8.560;2023-03-05T06:11:36;100645.09;;;2.92;97.70
34931;BME280;21134;49.646;8.560;2023-03-05T06:14:03;100642.75;;;2.98;97.88
34931;BME280;21134;49.646;8.560;2023-03-05T06:16:31;100637.63;;;2.96;97.42
34931;BME280;21134;49.646;8.560;2023-03-05T06:18:58;100641.81;;;2.94;97.66
34931;BME280;21134;49.646;8.560;2023-03-05T06:21:30;100641.75;;;2.93;97.23
34931;BME280;21134;49.646;8.560;2023-03-05T06:23:57;100638.41;;;2.94;97.91
34931;BME280;21134;49.646;8.560;2023-03-05T06:26:24;100645.19;;;2.95;97.09
34931;BME280;21134;49.646;8.560;2023-03-05T06:28:51;100645.22;;;2.96;97.73
34931;BME280;21134;49.646;8.560;2023-03-05T06:31:20;100641.06;;;2.97;97.91
34931;BME280;21134;49.646;8.560;2023-03-05T06:33:47;100647.81;;;2.98;97.86
34931;BME280;21134;49.646;8.560;2023-03-05T06:36:18;100652.91;;;2.99;98.23
34931;BME280;21134;49.646;8.560;2023-03-05T06:38:46;100648.75;;;3.01;97.47
34931;BME280;21134;49.646;8.560;2023-03-05T06:41:15;100647.06;;;3.00;97.52
34931;BME280;21134;49.646;8.560;2023-03-05T06:43:43;100640.22;;;2.98;97.75
34931;BME280;21134;49.646;8.560;2023-03-05T06:46:12;100640.25;;;2.99;97.61
34931;BME280;21134;49.646;8.560;2023-03-05T06:48:38;100642.78;;;2.99;97.18
34931;BME280;21134;49.646;8.560;2023-03-05T06:51:11;100649.50;;;2.99;98.08
34931;BME280;21134;49.646;8.560;2023-03-05T06:53:38;100647.91;;;3.01;98.02
34931;BME280;21134;49.646;8.560;2023-03-05T06:56:06;100651.19;;;2.98;97.75
34931;BME280;21134;49.646;8.560;2023-03-05T06:58:34;100658.03;;;3.01;98.17
34931;BME280;21134;49.646;8.560;2023-03-05T07:01:00;100647.16;;;3.03;98.02
34931;BME280;21134;49.646;8.560;2023-03-05T07:03:29;100643.81;;;3.05;97.83
34931;BME280;21134;49.646;8.560;2023-03-05T07:05:56;100640.47;;;3.06;98.13
34931;BME280;21134;49.646;8.560;2023-03-05T07:08:22;100645.59;;;3.07;97.49
34931;BME280;21134;49.646;8.560;2023-03-05T07:10:48;100640.47;;;3.06;97.45
34931;BME280;21134;49.646;8.560;2023-03-05T07:13:16;100638.00;;;3.07;97.52
34931;BME280;21134;49.646;8.560;2023-03-05T07:15:43;100633.81;;;3.09;97.56
34931;BME280;21134;49.646;8.560;2023-03-05T07:18:09;100634.88;;;3.16;97.63
34931;BME280;21134;49.646;8.560;2023-03-05T07:20:36;100632.34;;;3.16;97.80
34931;BME280;21134;49.646;8.560;2023-03-05T07:23:03;100626.53;;;3.18;98.09
34931;BME280;21134;49.646;8.560;2023-03-05T07:25:29;100627.47;;;3.22;97.57
34931;BME280;21134;49.646;8.560;2023-03-05T07:27:56;100631.84;;;3.26;97.94
34931;BME280;21134;49.646;8.560;2023-03-05T07:30:24;100638.66;;;3.29;97.54
34931;BME280;21134;49.646;8.560;2023-03-05T07:32:51;100642.09;;;3.31;97.58
34931;BME280;21134;49.646;8.560;2023-03-05T07:35:17;100631.34;;;3.38;97.42
34931;BME280;21134;49.646;8.560;2023-03-05T07:37:44;100632.25;;;3.40;97.00
34931;BME280;21134;49.646;8.560;2023-03-05T07:40:11;100637.44;;;3.44;96.90
34931;BME280;21134;49.646;8.560;2023-03-05T07:42:37;100624.09;;;3.48;96.68
34931;BME280;21134;49.646;8.560;2023-03-05T07:45:05;100634.34;;;3.53;96.79
34931;BME280;21134;49.646;8.560;2023-03-05T07:47:33;100636.19;;;3.59;96.70
34931;BME280;21134;49.646;8.560;2023-03-05T07:50:00;100632.16;;;3.65;96.37
34931;BME280;21134;49.646;8.560;2023-03-05T07:52:27;100633.09;;;3.67;96.44
34931;BME280;21134;49.646;8.560;2023-03-05T07:54:53;100630.66;;;3.70;96.26
34931;BME280;21134;49.646;8.560;2023-03-05T07:57:20;100637.59;;;3.78;96.34
34931;BME280;21134;49.646;8.560;2023-03-05T07:59:46;100638.53;;;3.81;96.68
34931;BME280;21134;49.646;8.560;2023-03-05T08:02:13;100628.63;;;3.89;96.44
34931;BME280;21134;49.646;8.560;2023-03-05T08:04:41;100638.97;;;3.96;96.20
34931;BME280;21134;49.646;8.560;2023-03-05T08:07:07;100638.28;;;4.02;96.06
34931;BME280;21134;49.646;8.560;2023-03-05T08:09:34;100631.63;;;4.06;95.84
34931;BME280;21134;49.646;8.560;2023-03-05T08:12:00;100631.81;;;4.12;94.94
34931;BME280;21134;49.646;8.560;2023-03-05T08:14:27;100631.25;;;4.24;94.68
34931;BME280;21134;49.646;8.560;2023-03-05T08:16:53;100632.25;;;4.29;94.24
34931;BME280;21134;49.646;8.560;2023-03-05T08:19:20;100624.75;;;4.33;93.98
34931;BME280;21134;49.646;8.560;2023-03-05T08:21:48;100636.81;;;4.40;93.89
34931;BME280;21134;49.646;8.560;2023-03-05T08:24:14;100628.53;;;4.48;93.37
34931;BME280;21134;49.646;8.560;2023-03-05T08:26:41;100627.09;;;4.57;92.34
34931;BME280;21134;49.646;8.560;2023-03-05T08:29:09;100629.03;;;4.68;90.61
34931;BME280;21134;49.646;8.560;2023-03-05T08:31:36;100629.72;;;4.62;88.52
34931;BME280;21134;49.646;8.560;2023-03-05T08:34:04;100624.03;;;4.69;89.18
34931;BME280;21134;49.646;8.560;2023-03-05T08:36:31;100622.50;;;4.76;88.82
34931;BME280;21134;49.646;8.560;2023-03-05T08:38:58;100619.31;;;4.84;87.82
34931;BME280;21134;49.646;8.560;2023-03-05T08:41:25;100619.44;;;4.90;87.55
34931;BME280;21134;49.646;8.560;2023-03-05T08:43:52;100614.59;;;5.00;87.63
34931;BME280;21134;49.646;8.560;2023-03-05T08:46:18;100611.50;;;5.11;85.70
34931;BME280;21134;49.646;8.560;2023-03-05T08:48:45;100608.13;;;5.12;85.55
34931;BME280;21134;49.646;8.560;2023-03-05T08:51:13;100609.25;;;5.24;83.99
34931;BME280;21134;49.646;8.560;2023-03-05T08:53:41;100612.66;;;5.26;84.14
34931;BME280;21134;49.646;8.560;2023-03-05T08:56:09;100612.00;;;5.34;79.67
34931;BME280;21134;49.646;8.560;2023-03-05T08:58:36;100606.44;;;5.51;78.87
34931;BME280;21134;49.646;8.560;2023-03-05T09:01:03;100612.25;;;5.45;78.65
34931;BME280;21134;49.646;8.560;2023-03-05T09:03:30;100603.69;;;5.40;77.81
34931;BME280;21134;49.646;8.560;2023-03-05T09:06:00;100604.81;;;5.54;76.26
34931;BME280;21134;49.646;8.560;2023-03-05T09:08:27;100601.16;;;5.42;75.46
34931;BME280;21134;49.646;8.560;2023-03-05T09:10:55;100597.00;;;5.45;72.86
34931;BME280;21134;49.646;8.560;2023-03-05T09:13:23;100605.44;;;5.43;73.97
34931;BME280;21134;49.646;8.560;2023-03-05T09:15:53;100610.81;;;5.58;72.34
34931;BME280;21134;49.646;8.560;2023-03-05T09:18:19;100603.81;;;5.46;72.57
34931;BME280;21134;49.646;8.560;2023-03-05T09:20:46;100604.75;;;5.50;73.17
34931;BME280;21134;49.646;8.560;2023-03-05T09:23:12;100594.53;;;5.48;72.70
34931;BME280;21134;49.646;8.560;2023-03-05T09:25:39;100604.81;;;5.53;71.89
34931;BME280;21134;49.646;8.560;2023-03-05T09:28:06;100594.66;;;5.54;71.82
34931;BME280;21134;49.646;8.560;2023-03-05T09:30:34;100595.72;;;5.64;71.73
34931;BME280;21134;49.646;8.560;2023-03-05T09:33:01;100587.13;;;5.57;70.51
34931;BME280;21134;49.646;8.560;2023-03-05T09:35:27;100593.94;;;5.60;72.29
34931;BME280;21134;49.646;8.560;2023-03-05T09:37:54;100587.97;;;5.56;72.71
34931;BME280;21134;49.646;8.560;2023-03-05T09:40:22;100587.38;;;5.70;71.79
34931;BME280;21134;49.646;8.560;2023-03-05T09:42:59;100581.31;;;5.63;72.24
34931;BME280;21134;49.646;8.560;2023-03-05T09:45:32;100581.19;;;5.57;72.00
34931;BME280;21134;49.646;8.560;2023-03-05T09:48:10;100581.50;;;5.72;71.53
34931;BME280;21134;49.646;8.560;2023-03-05T09:50:41;100575.59;;;5.72;71.50
34931;BME280;21134;49.646;8.560;2023-03-05T09:53:30;100576.56;;;5.80;71.35
34931;BME280;21134;49.646;8.560;2023-03-05T09:56:03;100573.25;;;5.81;71.43
34931;BME280;21134;49.646;8.560;2023-03-05T09:58:38;100562.44;;;5.91;70.20
34931;BME280;21134;49.646;8.560;2023-03-05T10:01:07;100560.09;;;6.02;69.03
34931;BME280;21134;49.646;8.560;2023-03-05T10:03:43;100561.19;;;6.15;68.88
34931;BME280;21134;49.646;8.560;2023-03-05T10:06:17;100550.25;;;6.19;68.16
34931;BME280;21134;49.646;8.560;2023-03-05T10:08:51;100549.50;;;6.23;66.51
34931;BME280;21134;49.646;8.560;2023-03-05T10:11:29;100547.13;;;6.34;65.83
34931;BME280;21134;49.646;8.560;2023-03-05T10:13:59;100540.28;;;6.31;66.38
34931;BME280;21134;49.646;8.560;2023-03-05T10:16:48;100545.38;;;6.29;65.04
34931;BME280;21134;49.646;8.560;2023-03-05T10:19:32;100546.78;;;6.14;64.26
34931;BME280;21134;49.646;8.560;2023-03-05T10:22:13;100540.91;;;6.16;65.10
34931;BME280;21134;49.646;8.560;2023-03-05T10:24:51;100543.19;;;6.02;65.35
34931;BME280;21134;49.646;8.560;2023-03-05T10:27:34;100531.94;;;5.91;65.00
34931;BME280;21134;49.646;8.560;2023-03-05T10:30:16;100533.78;;;5.97;65.08
34931;BME280;21134;49.646;8.560;2023-03-05T10:32:49;100523.69;;;6.01;65.42
34931;BME280;21134;49.646;8.560;2023-03-05T10:35:34;100524.66;;;6.07;63.84
34931;BME280;21134;49.646;8.560;2023-03-05T10:38:24;100523.81;;;6.08;64.98
34931;BME280;21134;49.646;8.560;2023-03-05T10:40:56;100511.41;;;6.24;63.57
34931;BME280;21134;49.646;8.560;2023-03-05T10:43:29;100518.00;;;6.15;63.49
34931;BME280;21134;49.646;8.560;2023-03-05T10:46:02;100506.34;;;6.26;61.52
34931;BME280;21134;49.646;8.560;2023-03-05T10:48:33;100511.59;;;6.35;61.57
34931;BME280;21134;49.646;8.560;2023-03-05T10:51:09;100505.50;;;6.27;62.60
34931;BME280;21134;49.646;8.560;2023-03-05T10:53:45;100503.34;;;6.50;62.02
34931;BME280;21134;49.646;8.560;2023-03-05T10:56:14;100502.31;;;6.39;61.38
34931;BME280;21134;49.646;8.560;2023-03-05T10:58:41;100504.38;;;6.61;61.77
34931;BME280;21134;49.646;8.560;2023-03-05T11:01:20;100497.50;;;6.57;60.83
34931;BME280;21134;49.646;8.560;2023-03-05T11:03:57;100498.50;;;6.64;61.05
34931;BME280;21134;49.646;8.560;2023-03-05T11:06:38;100486.78;;;6.75;59.90
34931;BME280;21134;49.646;8.560;2023-03-05T11:09:16;100487.34;;;6.56;60.62
34931;BME280;21134;49.646;8.560;2023-03-05T11:11:43;100484.84;;;6.59;60.26
34931;BME280;21134;49.646;8.560;2023-03-05T11:14:23;100481.50;;;6.61;60.67
34931;BME280;21134;49.646;8.560;2023-03-05T11:16:54;100481.34;;;6.52;60.40
34931;BME280;21134;49.646;8.560;2023-03-05T11:19:24;100482.09;;;6.45;61.49
34931;BME280;21134;49.646;8.560;2023-03-05T11:22:14;100477.56;;;6.28;62.16
34931;BME280;21134;49.646;8.560;2023-03-05T11:24:41;100474.19;;;6.28;62.31
34931;BME280;21134;49.646;8.560;2023-03-05T11:27:22;100467.47;;;6.32;61.72
34931;BME280;21134;49.646;8.560;2023-03-05T11:29:50;100472.50;;;6.28;61.95
34931;BME280;21134;49.646;8.560;2023-03-05T11:32:20;100463.16;;;6.26;61.09
34931;BME280;21134;49.646;8.560;2023-03-05T11:34:47;100461.53;;;6.29;60.67
34931;BME280;21134;49.646;8.560;2023-03-05T11:37:22;100467.50;;;6.35;60.53
34931;BME280;21134;49.646;8.560;2023-03-05T11:40:06;100458.28;;;6.41;60.52
34931;BME280;21134;49.646;8.560;2023-03-05T11:42:39;100454.84;;;6.38;61.21
34931;BME280;21134;49.646;8.560;2023-03-05T11:45:13;100460.81;;;6.40;61.45
34931;BME280;21134;49.646;8.560;2023-03-05T11:47:43;100451.59;;;6.46;59.95
34931;BME280;21134;49.646;8.560;2023-03-05T11:50:19;100446.47;;;6.42;60.47
34931;BME280;21134;49.646;8.560;2023-03-05T11:52:48;100445.63;;;6.44;61.58
34931;BME280;21134;49.646;8.560;2023-03-05T11:55:17;100437.28;;;6.53;59.88
34931;BME280;21134;49.646;8.560;2023-03-05T11:57:49;100438.03;;;6.46;61.00
34931;BME280;21134;49.646;8.560;2023-03-05T12:00:20;100427.78;;;6.40;61.49
34931;BME280;21134;49.646;8.560;2023-03-05T12:02:52;100432.78;;;6.34;63.25
34931;BME280;21134;49.646;8.560;2023-03-05T12:05:20;100429.59;;;6.47;63.12
34931;BME280;21134;49.646;8.560;2023-03-05T12:07:49;100426.94;;;6.41;63.79
34931;BME280;21134;49.646;8.560;2023-03-05T12:10:19;100423.69;;;6.49;63.38
34931;BME280;21134;49.646;8.560;2023-03-05T12:12:51;100423.78;;;6.54;63.48
34931;BME280;21134;49.646;8.560;2023-03-05T12:15:44;100426.31;;;6.54;63.06
34931;BME280;21134;49.646;8.560;2023-03-05T12:18:24;100424.69;;;6.58;63.13
34931;BME280;21134;49.646;8.560;2023-03-05T12:21:01;100412.44;;;6.34;63.63
34931;BME280;21134;49.646;8.560;2023-03-05T12:23:45;100414.22;;;6.39;62.62
34931;BME280;21134;49.646;8.560;2023-03-05T12:26:12;100411.50;;;6.28;64.16
34931;BME280;21134;49.646;8.560;2023-03-05T12:28:56;100411.25;;;6.12;63.53
34931;BME280;21134;49.646;8.560;2023-03-05T12:31:34;100403.03;;;6.28;62.77
34931;BME280;21134;49.646;8.560;2023-03-05T12:37:01;100397.16;;;6.29;63.11
34931;BME280;21134;49.646;8.560;2023-03-05T12:39:59;100389.38;;;6.20;62.58
34931;BME280;21134;49.646;8.560;2023-03-05T12:42:46;100386.09;;;6.28;62.50
34931;BME280;21134;49.646;8.560;2023-03-05T12:45:37;100396.25;;;6.27;62.67
34931;BME280;21134;49.646;8.560;2023-03-05T12:48:41;100388.53;;;6.21;63.68
34931;BME280;21134;49.646;8.560;2023-03-05T12:51:13;100386.78;;;6.17;64.06
34931;BME280;21134;49.646;8.560;2023-03-05T12:53:40;100391.03;;;6.16;64.92
34931;BME280;21134;49.646;8.560;2023-03-05T12:56:16;100377.25;;;6.02;64.92
34931;BME280;21134;49.646;8.560;2023-03-05T12:58:46;100380.81;;;6.13;65.67
34931;BME280;21134;49.646;8.560;2023-03-05T13:04:03;100375.31;;;5.90;67.83
34931;BME280;21134;49.646;8.560;2023-03-05T13:06:36;100369.56;;;5.97;66.03
34931;BME280;21134;49.646;8.560;2023-03-05T13:09:06;100374.56;;;5.93;67.20
34931;BME280;21134;49.646;8.560;2023-03-05T13:11:36;100362.00;;;6.00;66.85
34931;BME280;21134;49.646;8.560;2023-03-05T13:14:25;100361.09;;;5.97;66.43
34931;BME280;21134;49.646;8.560;2023-03-05T13:16:53;100353.56;;;6.03;66.54